| time (UTC) | temp C | wind direction | speed KPH | gust KPH | rain 1hr cm | rain 24hr cm | rain mn cm | humidity % | barometer mb |
| 20260508012130 | 10 | 277 | 0.0 | 1.6 | 0.00 | 0.00 | 0.00 | 57 | 993.3 |
| 20260508011101 | 10 | 277 | 0.0 | 1.6 | 0.00 | 0.00 | 0.00 | 56 | 993.1 |
| 20260508010051 | 10 | 285 | 0.0 | 1.6 | 0.00 | 0.00 | 0.00 | 57 | 992.7 |
| 20260508005041 | 10 | 280 | 0.0 | 1.6 | 0.00 | 0.00 | 0.00 | 55 | 992.6 |
| 20260508004030 | 11 | 280 | 0.0 | 1.6 | 0.00 | 0.00 | 0.00 | 53 | 992.6 |
| 20260508003020 | 11 | 271 | 0.0 | 3.2 | 0.00 | 0.00 | 0.00 | 53 | 992.2 |
| 20260508002131 | 11 | 281 | 1.6 | 3.2 | 0.00 | 0.00 | 0.00 | 51 | 992.1 |
| 20260508001103 | 11 | 284 | 1.6 | 4.8 | 0.00 | 0.00 | 0.00 | 48 | 991.8 |
| 20260508000052 | 12 | 285 | 1.6 | 3.2 | 0.00 | 0.00 | 0.00 | 46 | 991.6 |
| 20260507235101 | 12 | 260 | 3.2 | 9.7 | 0.00 | 0.00 | 0.00 | 44 | 991.5 |
| 20260507234031 | 12 | 279 | 3.2 | 11.3 | 0.00 | 0.00 | 0.00 | 42 | 991.3 |
| 20260507233022 | 13 | 272 | 1.6 | 3.2 | 0.00 | 0.00 | 0.00 | 42 | 991.3 |
| 20260507232113 | 13 | 277 | 1.6 | 3.2 | 0.00 | 0.00 | 0.00 | 41 | 991.1 |
| 20260507231103 | 13 | 271 | 4.8 | 9.7 | 0.00 | 0.00 | 0.00 | 39 | 991.2 |
| 20260507230052 | 13 | 278 | 1.6 | 1.6 | 0.00 | 0.00 | 0.00 | 40 | 991.1 |
| 20260507225101 | 13 | 284 | 1.6 | 4.8 | 0.00 | 0.00 | 0.00 | 38 | 990.9 |
| 20260507224031 | 14 | 280 | 3.2 | 6.4 | 0.00 | 0.00 | 0.00 | 38 | 991.0 |
| 20260507223041 | 15 | 277 | 1.6 | 1.6 | 0.00 | 0.00 | 0.00 | 38 | 990.8 |
| 20260507222517 | 14 | 315 | 1.6 | 4.8 | 0.00 | 0.00 | 0.00 | 39 | 990.8 |
| 20260507221607 | 14 | 285 | 1.6 | 4.8 | 0.00 | 0.00 | 0.00 | 39 | 990.9 |
| 20260507220558 | 14 | 273 | 3.2 | 4.8 | 0.00 | 0.00 | 0.00 | 39 | 990.6 |
| 20260507215547 | 15 | 292 | 4.8 | 9.7 | 0.00 | 0.00 | 0.00 | 38 | 990.5 |
| 20260507214538 | 14 | 284 | 1.6 | 4.8 | 0.00 | 0.00 | 0.00 | 39 | 990.4 |
| 20260507213527 | 15 | 282 | 1.6 | 4.8 | 0.00 | 0.00 | 0.00 | 37 | 990.3 |
| 20260507212519 | 15 | 251 | 1.6 | 4.8 | 0.00 | 0.00 | 0.00 | 37 | 990.5 |
| 20260507211608 | 15 | 287 | 3.2 | 4.8 | 0.00 | 0.00 | 0.00 | 38 | 990.5 |
| 20260507210559 | 16 | 274 | 4.8 | 12.9 | 0.00 | 0.00 | 0.00 | 36 | 990.4 |
| 20260507205549 | 16 | 284 | 3.2 | 9.7 | 0.00 | 0.00 | 0.00 | 37 | 990.4 |
| 20260507204538 | 15 | 284 | 3.2 | 9.7 | 0.00 | 0.00 | 0.00 | 38 | 990.4 |
| 20260507203528 | 15 | 279 | 3.2 | 11.3 | 0.00 | 0.00 | 0.00 | 38 | 990.4 |
| 20260507202519 | 15 | 296 | 1.6 | 9.7 | 0.00 | 0.00 | 0.00 | 39 | 990.4 |
| 20260507201609 | 15 | 283 | 1.6 | 4.8 | 0.00 | 0.00 | 0.00 | 38 | 990.5 |
| 20260507200600 | 16 | 281 | 3.2 | 4.8 | 0.00 | 0.00 | 0.00 | 37 | 990.6 |
| 20260507195550 | 16 | 277 | 4.8 | 16.1 | 0.00 | 0.00 | 0.00 | 38 | 990.7 |
| 20260507194540 | 16 | 265 | 3.2 | 12.9 | 0.00 | 0.00 | 0.00 | 37 | 990.7 |
| 20260507193529 | 16 | 277 | 1.6 | 4.8 | 0.00 | 0.00 | 0.00 | 38 | 990.8 |
| 20260507192520 | 17 | 281 | 3.2 | 4.8 | 0.00 | 0.00 | 0.00 | 37 | 990.9 |
| 20260507191611 | 16 | 280 | 1.6 | 6.4 | 0.00 | 0.00 | 0.00 | 39 | 990.8 |
| 20260507190601 | 16 | 291 | 1.6 | 6.4 | 0.00 | 0.00 | 0.00 | 40 | 991.0 |
| 20260507185551 | 16 | 268 | 3.2 | 11.3 | 0.00 | 0.00 | 0.00 | 39 | 991.0 |
| 20260507184541 | 14 | 275 | 1.6 | 4.8 | 0.00 | 0.00 | 0.00 | 41 | 991.1 |
| 20260507183531 | 15 | 286 | 1.6 | 4.8 | 0.00 | 0.00 | 0.00 | 42 | 991.2 |
| 20260507182520 | 15 | 271 | 3.2 | 11.3 | 0.00 | 0.00 | 0.00 | 41 | 991.3 |
| 20260507181611 | 15 | 271 | 3.2 | 6.4 | 0.00 | 0.00 | 0.00 | 41 | 991.3 |
| 20260507180057 | 15 | 269 | 4.8 | 9.7 | 0.00 | 0.00 | 0.00 | 40 | 991.6 |
| 20260507175046 | 15 | 339 | 1.6 | 4.8 | 0.00 | 0.00 | 0.00 | 43 | 991.5 |
| 20260507174036 | 14 | 282 | 1.6 | 4.8 | 0.00 | 0.00 | 0.00 | 45 | 991.5 |
| 20260507173026 | 15 | 282 | 3.2 | 11.3 | 0.00 | 0.00 | 0.00 | 44 | 991.8 |
| 20260507172017 | 14 | 280 | 1.6 | 3.2 | 0.00 | 0.00 | 0.00 | 46 | 991.8 |
| 20260507171128 | 15 | 291 | 0.0 | 3.2 | 0.00 | 0.00 | 0.00 | 45 | 991.9 |
| 20260507170057 | 15 | 280 | 3.2 | 9.7 | 0.00 | 0.00 | 0.00 | 41 | 992.2 |
| 20260507165047 | 14 | 275 | 1.6 | 4.8 | 0.00 | 0.00 | 0.00 | 44 | 992.1 |
| 20260507164037 | 13 | 272 | 0.0 | 1.6 | 0.00 | 0.00 | 0.00 | 48 | 992.2 |
| 20260507163027 | 13 | 275 | 0.0 | 3.2 | 0.00 | 0.00 | 0.00 | 48 | 992.2 |
| 20260507162017 | 14 | 292 | 3.2 | 9.7 | 0.00 | 0.00 | 0.00 | 46 | 992.3 |
| 20260507161108 | 14 | 271 | 1.6 | 4.8 | 0.00 | 0.00 | 0.00 | 44 | 992.3 |
| 20260507160058 | 14 | 275 | 1.6 | 3.2 | 0.00 | 0.00 | 0.00 | 45 | 992.5 |
| 20260507155048 | 15 | 279 | 3.2 | 9.7 | 0.00 | 0.00 | 0.00 | 41 | 992.6 |
| 20260507154118 | 15 | 272 | 3.2 | 9.7 | 0.00 | 0.00 | 0.00 | 43 | 992.7 |
| 20260507153028 | 14 | 275 | 3.2 | 6.4 | 0.00 | 0.00 | 0.00 | 42 | 992.7 |
| 20260507152018 | 13 | 273 | 1.6 | 4.8 | 0.00 | 0.00 | 0.00 | 47 | 992.7 |
| 20260507151109 | 13 | 281 | 1.6 | 3.2 | 0.00 | 0.00 | 0.00 | 47 | 992.8 |
| 20260507150059 | 14 | 277 | 1.6 | 6.4 | 0.00 | 0.00 | 0.00 | 47 | 993.0 |
| 20260507145049 | 14 | 270 | 3.2 | 6.4 | 0.00 | 0.00 | 0.00 | 46 | 993.2 |
| 20260507144039 | 14 | 282 | 0.0 | 4.8 | 0.00 | 0.00 | 0.00 | 47 | 993.3 |
| 20260507143029 | 13 | 277 | 1.6 | 3.2 | 0.00 | 0.00 | 0.00 | 49 | 993.4 |
| 20260507142019 | 13 | 271 | 3.2 | 4.8 | 0.00 | 0.00 | 0.00 | 49 | 993.5 |
| 20260507141132 | 13 | 292 | 1.6 | 3.2 | 0.00 | 0.00 | 0.00 | 54 | 993.6 |
| 20260507135110 | 13 | 279 | 0.0 | 3.2 | 0.00 | 0.00 | 0.00 | 56 | 993.7 |
| 20260507134040 | 12 | 296 | 1.6 | 4.8 | 0.00 | 0.00 | 0.00 | 56 | 993.7 |
| 20260507133030 | 12 | 285 | 1.6 | 4.8 | 0.00 | 0.00 | 0.00 | 56 | 993.8 |
| 20260507132021 | 12 | 275 | 1.6 | 3.2 | 0.00 | 0.00 | 0.00 | 56 | 993.9 |
| 20260507131111 | 11 | 283 | 1.6 | 4.8 | 0.00 | 0.00 | 0.00 | 60 | 993.9 |
| 20260507125051 | 10 | 271 | 0.0 | 3.2 | 0.00 | 0.00 | 0.00 | 64 | 993.9 |
| 20260507124102 | 10 | 288 | 0.0 | 1.6 | 0.00 | 0.00 | 0.00 | 65 | 993.7 |
| 20260507123031 | 8 | 281 | 0.0 | 1.6 | 0.00 | 0.00 | 0.00 | 73 | 993.7 |
| 20260507122021 | 7 | 308 | 1.6 | 3.2 | 0.00 | 0.00 | 0.00 | 78 | 993.7 |
| 20260507121112 | 7 | 276 | 0.0 | 1.6 | 0.00 | 0.00 | 0.00 | 79 | 993.6 |
| 20260507120122 | 5 | 0.0 | 0.0 | 0.00 | 0.00 | 0.00 | 90 | 993.5 | |
| 20260507115052 | 4 | 0.0 | 0.0 | 0.00 | 0.00 | 0.00 | 95 | 993.5 | |
| 20260507114042 | 3 | 0.0 | 0.0 | 0.00 | 0.00 | 0.00 | 95 | 993.5 | |
| 20260507113032 | 3 | 0.0 | 0.0 | 0.00 | 0.00 | 0.00 | 95 | 993.3 | |
| 20260507112022 | 2 | 0.0 | 0.0 | 0.00 | 0.00 | 0.00 | 95 | 993.3 | |
| 20260507111113 | 2 | 0.0 | 0.0 | 0.00 | 0.00 | 0.00 | 95 | 993.1 | |
| 20260507110103 | 2 | 0.0 | 0.0 | 0.00 | 0.00 | 0.00 | 94 | 993.1 | |
| 20260507105135 | 2 | 0.0 | 0.0 | 0.00 | 0.00 | 0.00 | 94 | 993.1 | |
| 20260507104043 | 2 | 0.0 | 0.0 | 0.00 | 0.00 | 0.00 | 94 | 993.0 | |
| 20260507103053 | 2 | 0.0 | 0.0 | 0.00 | 0.00 | 0.00 | 94 | 992.8 | |
| 20260507102043 | 2 | 0.0 | 0.0 | 0.00 | 0.00 | 0.00 | 94 | 992.8 | |
| 20260507101134 | 2 | 0.0 | 0.0 | 0.00 | 0.00 | 0.00 | 93 | 992.9 | |
| 20260507100104 | 2 | 0.0 | 0.0 | 0.00 | 0.00 | 0.00 | 93 | 992.9 | |
| 20260507095054 | 2 | 0.0 | 0.0 | 0.00 | 0.00 | 0.00 | 93 | 992.9 | |
| 20260507094044 | 2 | 0.0 | 0.0 | 0.00 | 0.00 | 0.00 | 93 | 992.9 | |
| 20260507093034 | 2 | 0.0 | 0.0 | 0.00 | 0.00 | 0.00 | 93 | 992.9 | |
| 20260507092023 | 2 | 0.0 | 0.0 | 0.00 | 0.00 | 0.00 | 92 | 993.1 | |
| 20260507091116 | 2 | 0.0 | 0.0 | 0.00 | 0.00 | 0.00 | 92 | 993.1 | |
| 20260507090125 | 2 | 0.0 | 0.0 | 0.00 | 0.00 | 0.00 | 92 | 993.0 | |
| 20260507085054 | 3 | 0.0 | 0.0 | 0.00 | 0.00 | 0.00 | 91 | 993.0 | |
| 20260507084045 | 3 | 0.0 | 0.0 | 0.00 | 0.00 | 0.00 | 91 | 993.1 | |
| 20260507083035 | 3 | 0.0 | 0.0 | 0.00 | 0.00 | 0.00 | 90 | 993.0 | |
| 20260507082044 | 3 | 0.0 | 0.0 | 0.00 | 0.00 | 0.00 | 90 | ||
| 20260507081015 | 3 | 0.0 | 0.0 | 0.00 | 0.00 | 0.00 | 90 | ||
| 20260507080106 | 3 | 0.0 | 0.0 | 0.00 | 0.00 | 0.00 | 90 | ||
| 20260507075057 | 3 | 0.0 | 0.0 | 0.00 | 0.00 | 0.00 | 89 | ||
| 20260507074046 | 3 | 0.0 | 0.0 | 0.00 | 0.00 | 0.00 | 89 | ||
| 20260507073036 | 4 | 0.0 | 0.0 | 0.00 | 0.00 | 0.00 | 88 | ||
| 20260507072026 | 4 | 0.0 | 0.0 | 0.00 | 0.00 | 0.00 | 86 | ||
| 20260507071057 | 5 | 0.0 | 0.0 | 0.00 | 0.00 | 0.00 | 85 | ||
| 20260507070106 | 5 | 0.0 | 0.0 | 0.00 | 0.00 | 0.00 | 84 | ||
| 20260507065056 | 5 | 0.0 | 0.0 | 0.00 | 0.00 | 0.00 | 82 | ||
| 20260507064046 | 5 | 0.0 | 0.0 | 0.00 | 0.00 | 0.00 | 83 | ||
| 20260507063056 | 6 | 0.0 | 0.0 | 0.00 | 0.00 | 0.00 | 81 | ||
| 20260507062106 | 6 | 0.0 | 0.0 | 0.00 | 0.00 | 0.00 | 84 | ||
| 20260507061016 | 6 | 0.0 | 0.0 | 0.00 | 0.00 | 0.00 | 83 | ||
| 20260507060127 | 6 | 0.0 | 0.0 | 0.00 | 0.00 | 0.00 | 83 | ||
| 20260507055057 | 6 | 0.0 | 0.0 | 0.00 | 0.00 | 0.00 | 82 | ||
| 20260507054047 | 7 | 0.0 | 0.0 | 0.00 | 0.00 | 0.00 | 81 | ||
| 20260507053058 | 7 | 0.0 | 0.0 | 0.00 | 0.00 | 0.00 | 79 | ||
| 20260507052028 | 7 | 0.0 | 0.0 | 0.00 | 0.00 | 0.00 | 79 | ||
| 20260507051018 | 7 | 0.0 | 0.0 | 0.00 | 0.00 | 0.00 | 77 | ||
| 20260507050108 | 7 | 0.0 | 0.0 | 0.00 | 0.00 | 0.00 | 79 | ||
| 20260507045058 | 7 | 0.0 | 0.0 | 0.00 | 0.00 | 0.00 | 78 | ||
| 20260507044109 | 7 | 0.0 | 0.0 | 0.00 | 0.00 | 0.00 | 78 | ||
| 20260507043119 | 7 | 0.0 | 0.0 | 0.00 | 0.00 | 0.00 | 77 | ||
| 20260507042028 | 7 | 0.0 | 0.0 | 0.00 | 0.00 | 0.00 | 76 | ||
| 20260507041019 | 7 | 0.0 | 0.0 | 0.00 | 0.00 | 0.00 | 77 | ||
| 20260507040109 | 7 | 0.0 | 0.0 | 0.00 | 0.00 | 0.00 | 76 | ||
| 20260507035119 | 7 | 0.0 | 0.0 | 0.00 | 0.00 | 0.00 | 75 | ||
| 20260507034048 | 7 | 0.0 | 0.0 | 0.00 | 0.00 | 0.00 | 77 | ||
| 20260507033039 | 7 | 0.0 | 0.0 | 0.00 | 0.00 | 0.00 | 75 | ||
| 20260507032029 | 7 | 0.0 | 0.0 | 0.00 | 0.00 | 0.00 | 74 | ||
| 20260507031018 | 8 | 0.0 | 0.0 | 0.00 | 0.00 | 0.00 | 74 | ||
| 20260507030150 | 8 | 0.0 | 0.0 | 0.00 | 0.00 | 0.00 | 73 | ||
| 20260507025059 | 8 | 0.0 | 0.0 | 0.00 | 0.00 | 0.00 | 73 | ||
| 20260507024050 | 8 | 0.0 | 0.0 | 0.00 | 0.00 | 0.00 | 74 | ||
| 20260507023040 | 8 | 0.0 | 0.0 | 0.00 | 0.00 | 0.00 | 72 | ||
| 20260507022029 | 8 | 0.0 | 0.0 | 0.00 | 0.00 | 0.00 | 73 | ||
| 20260507021020 | 8 | 0.0 | 0.0 | 0.00 | 0.00 | 0.00 | 72 | ||
| 20260507020111 | 8 | 0.0 | 0.0 | 0.00 | 0.00 | 0.00 | 71 | ||
| 20260507015100 | 8 | 0.0 | 0.0 | 0.00 | 0.00 | 0.00 | 71 | ||
| 20260507014051 | 8 | 0.0 | 0.0 | 0.00 | 0.00 | 0.00 | 72 | ||
| 20260507013040 | 8 | 0.0 | 0.0 | 0.00 | 0.00 | 0.00 | 72 |